Time;durP1;ratioP1;P1;durP2;ratioP2;P2;SDS_P1;SDS_P2;PMS_P1;PMS_P2;Temp;Humidity;BMP_temperature;BMP_pressure;BME280_temperature;BME280_humidity;BME280_pressure;Samples;Min_cycle;Max_cycle;Signal;HPM_P1;HPM_P2
2021/03/25 00:02:03;;;;;;;84.28;36.95;;;;;;;8.50;95.95;101297.56;4972325;28;20403;-74
2021/03/25 00:04:28;;;;;;;86.05;38.17;;;;;;;8.51;96.54;101310.69;4969299;28;20089;-76
2021/03/25 00:06:58;;;;;;;87.80;38.00;;;;;;;8.51;96.00;101307.22;4968844;28;20106;-75
2021/03/25 00:09:28;;;;;;;85.75;36.05;;;;;;;8.25;97.23;101299.28;4973702;28;20050;-75
2021/03/25 00:11:54;;;;;;;85.93;36.45;;;;;;;8.31;97.77;101299.88;4976621;28;20037;-74
2021/03/25 00:14:20;;;;;;;84.50;36.25;;;;;;;8.09;97.50;101293.63;4976281;28;20454;-74
2021/03/25 00:16:46;;;;;;;81.32;36.20;;;;;;;7.99;98.03;101309.31;4973322;28;20035;-74
2021/03/25 00:19:12;;;;;;;89.82;36.83;;;;;;;8.05;98.91;101302.66;4975491;28;20043;-74
2021/03/25 00:21:38;;;;;;;74.70;34.47;;;;;;;7.97;97.82;101311.53;4975599;28;20062;-74
2021/03/25 00:24:06;;;;;;;82.80;35.00;;;;;;;8.12;97.07;101321.72;4974479;28;20380;-75
2021/03/25 00:26:31;;;;;;;87.30;35.80;;;;;;;8.69;94.15;101330.16;4971911;28;20026;-74
2021/03/25 00:28:57;;;;;;;87.40;35.80;;;;;;;8.20;95.08;101320.91;4975583;28;20035;-75
2021/03/25 00:31:22;;;;;;;87.97;38.10;;;;;;;8.08;96.38;101321.56;4975104;28;20110;-76
2021/03/25 00:33:48;;;;;;;89.38;36.95;;;;;;;7.89;97.43;101320.38;4975523;28;20038;-74
2021/03/25 00:36:14;;;;;;;85.90;37.28;;;;;;;7.74;99.52;101318.22;4975522;28;20042;-74
2021/03/25 00:38:39;;;;;;;83.38;36.20;;;;;;;7.80;98.89;101316.94;4975548;28;20487;-74
2021/03/25 00:41:04;;;;;;;77.93;35.67;;;;;;;7.69;98.75;101316.47;4972933;28;20387;-75
2021/03/25 00:43:30;;;;;;;84.95;36.08;;;;;;;7.67;99.01;101315.22;4975057;28;20610;-74
2021/03/25 00:45:56;;;;;;;81.03;35.53;;;;;;;7.48;98.92;101317.44;4972191;28;20054;-74
2021/03/25 00:48:24;;;;;;;83.10;34.95;;;;;;;7.54;99.79;101319.66;4969080;28;20074;-75
2021/03/25 00:50:56;;;;;;;82.95;34.95;;;;;;;7.54;99.43;101326.91;4973715;28;20081;-74
2021/03/25 00:53:26;;;;;;;83.45;36.40;;;;;;;7.45;99.26;101313.53;4972876;28;20043;-76
2021/03/25 00:55:52;;;;;;;86.47;35.60;;;;;;;7.36;100.00;101318.09;4962117;28;20789;-74
2021/03/25 00:58:18;;;;;;;86.82;36.83;;;;;;;7.35;100.00;101324.56;4975327;28;20106;-75
2021/03/25 01:00:46;;;;;;;82.90;35.78;;;;;;;7.37;100.00;101321.56;4970820;28;20039;-74
2021/03/25 01:03:13;;;;;;;93.97;36.35;;;;;;;7.33;100.00;101321.41;4974255;28;20043;-74
2021/03/25 01:05:40;;;;;;;82.38;35.22;;;;;;;7.24;100.00;101324.09;4971716;28;20054;-74
2021/03/25 01:08:07;;;;;;;83.68;35.78;;;;;;;7.18;100.00;101327.25;4964160;28;20022;-74
2021/03/25 01:10:38;;;;;;;83.72;34.95;;;;;;;7.20;100.00;101323.13;4961922;28;20035;-74
2021/03/25 01:13:08;;;;;;;77.63;33.78;;;;;;;7.07;100.00;101328.66;4957515;28;20526;-75
2021/03/25 01:15:34;;;;;;;86.32;35.70;;;;;;;7.09;100.00;101327.25;4974168;28;20039;-75
2021/03/25 01:18:02;;;;;;;82.70;35.47;;;;;;;7.05;99.72;101326.28;4970834;28;20081;-74
2021/03/25 01:20:34;;;;;;;82.95;34.33;;;;;;;7.12;100.00;101320.47;4964605;28;20479;-75
2021/03/25 01:23:01;;;;;;;82.22;35.42;;;;;;;7.16;100.00;101326.78;4972918;28;20065;-76
2021/03/25 01:25:28;;;;;;;85.68;35.75;;;;;;;7.08;100.00;101322.19;4958872;28;20031;-75
2021/03/25 01:27:58;;;;;;;86.47;34.97;;;;;;;7.00;100.00;101323.78;4968632;28;20444;-74
2021/03/25 01:30:26;;;;;;;85.38;35.50;;;;;;;6.92;100.00;101316.53;4953204;28;20038;-74
2021/03/25 01:32:52;;;;;;;86.20;35.55;;;;;;;6.88;100.00;101315.56;4956061;28;20042;-75
2021/03/25 01:35:18;;;;;;;86.60;36.15;;;;;;;6.82;100.00;101314.13;4974198;28;20030;-75
2021/03/25 01:37:46;;;;;;;83.47;34.10;;;;;;;6.92;100.00;101327.22;4965197;28;20043;-74
2021/03/25 01:40:21;;;;;;;83.38;33.92;;;;;;;6.97;100.00;101319.03;4973354;28;20045;-74
2021/03/25 01:42:48;;;;;;;84.55;35.15;;;;;;;6.71;99.86;101318.22;4974184;28;20035;-75
2021/03/25 01:45:29;;;;;;;84.30;35.42;;;;;;;6.81;100.00;101325.97;4953234;28;20026;-75
2021/03/25 01:47:57;;;;;;;84.47;35.08;;;;;;;6.92;99.16;101329.91;4948915;28;20038;-76
2021/03/25 01:50:23;;;;;;;78.00;33.63;;;;;;;6.91;99.95;101324.88;4951920;28;20484;-75
2021/03/25 01:53:08;;;;;;;80.97;35.15;;;;;;;6.61;100.00;101325.75;4956570;28;20038;-74
2021/03/25 01:56:13;;;;;;;79.85;34.50;;;;;;;6.47;100.00;101319.72;4970229;28;20064;-76
2021/03/25 01:59:02;;;;;;;84.72;33.45;;;;;;;6.67;100.00;101327.97;4970733;28;20055;-76
2021/03/25 02:01:34;;;;;;;85.25;33.30;;;;;;;6.57;100.00;101322.91;4960188;28;20037;-75
2021/03/25 02:04:47;;;;;;;82.97;34.50;;;;;;;6.62;100.00;101327.34;4956244;28;20664;-74
2021/03/25 02:07:13;;;;;;;80.45;35.13;;;;;;;6.78;100.00;101323.09;4967951;28;20448;-75
2021/03/25 02:10:03;;;;;;;76.65;32.78;;;;;;;6.72;99.58;101329.69;4971418;28;20173;-76
2021/03/25 02:12:58;;;;;;;79.28;33.03;;;;;;;6.63;100.00;101324.34;4952623;28;20117;-74
2021/03/25 02:15:35;;;;;;;85.05;35.63;;;;;;;6.58;100.00;101326.38;4972992;28;20491;-74
2021/03/25 02:18:41;;;;;;;88.18;34.78;;;;;;;6.53;100.00;101315.81;4956234;28;20034;-74
2021/03/25 02:21:30;;;;;;;82.57;33.15;;;;;;;6.48;100.00;101321.31;4968531;28;20034;-75
2021/03/25 02:24:13;;;;;;;85.63;33.63;;;;;;;6.33;100.00;101325.19;4979493;28;20113;-75
2021/03/25 02:27:18;;;;;;;84.25;33.50;;;;;;;6.50;100.00;101319.91;4970364;28;20042;-75
2021/03/25 02:30:05;;;;;;;80.03;33.58;;;;;;;6.51;100.00;101315.31;4951171;28;20054;-75
2021/03/25 02:32:46;;;;;;;88.32;34.55;;;;;;;6.47;100.00;101315.16;4971613;28;20129;-74
2021/03/25 02:35:25;;;;;;;90.57;35.65;;;;;;;6.53;100.00;101318.47;4971767;28;20046;-75
2021/03/25 02:38:16;;;;;;;85.70;35.00;;;;;;;6.56;100.00;101316.00;4970891;28;20168;-75
2021/03/25 02:40:51;;;;;;;81.30;34.90;;;;;;;6.58;100.00;101310.31;4965161;28;20037;-77
2021/03/25 02:43:26;;;;;;;79.97;33.60;;;;;;;6.66;100.00;101315.69;4971313;28;20066;-76
2021/03/25 02:46:01;;;;;;;81.68;33.35;;;;;;;6.75;100.00;101313.03;4971948;28;20807;-76
2021/03/25 02:48:31;;;;;;;81.50;34.50;;;;;;;6.78;100.00;101315.88;4971028;28;20031;-75
2021/03/25 02:51:02;;;;;;;83.47;33.30;;;;;;;6.91;100.00;101309.56;4971691;28;20038;-76
2021/03/25 02:53:33;;;;;;;;;;;;;;;6.89;100.00;101311.78;4969031;28;20381;-75
2021/03/25 02:56:09;;;;;;;78.03;33.97;;;;;;;7.07;100.00;101302.66;4972547;28;19914;-75
2021/03/25 02:58:41;;;;;;;86.60;34.10;;;;;;;7.09;100.00;101305.81;4969011;28;20508;-77
2021/03/25 03:01:11;;;;;;;84.60;34.85;;;;;;;7.15;100.00;101304.56;4969236;28;20031;-74
2021/03/25 03:03:45;;;;;;;81.63;34.28;;;;;;;7.32;100.00;101304.56;4970819;28;20077;-74
2021/03/25 03:06:42;;;;;;;81.50;35.17;;;;;;;7.32;100.00;101309.13;4962905;28;20035;-74
2021/03/25 03:09:21;;;;;;;87.13;34.87;;;;;;;7.29;100.00;101301.72;4953307;28;20033;-75
2021/03/25 03:11:53;;;;;;;87.28;34.78;;;;;;;7.39;100.00;101306.75;4966989;28;20369;-74
2021/03/25 03:14:29;;;;;;;96.38;37.47;;;;;;;7.41;100.00;101306.44;4953920;28;20046;-75
2021/03/25 03:17:02;;;;;;;87.82;34.40;;;;;;;7.53;100.00;101309.28;4973180;28;20062;-77
2021/03/25 03:19:32;;;;;;;82.82;33.95;;;;;;;7.51;100.00;101306.13;4952696;28;20041;-74
2021/03/25 03:22:04;;;;;;;89.38;35.97;;;;;;;7.47;100.00;101302.50;4953176;28;20030;-75
2021/03/25 03:28:19;;;;;;;82.30;34.95;;;;;;;7.67;100.00;101307.16;4952333;28;20582;-82
2021/03/25 03:31:07;;;;;;;93.22;35.33;;;;;;;7.69;100.00;101304.97;4958426;28;20136;-81
2021/03/25 03:33:40;;;;;;;80.35;34.67;;;;;;;7.64;100.00;101310.50;4963637;28;20030;-82
2021/03/25 03:36:12;;;;;;;83.43;35.05;;;;;;;7.71;100.00;101305.44;4937262;28;20036;-82
2021/03/25 03:39:01;;;;;;;85.85;35.35;;;;;;;8.02;100.00;101296.03;4947054;29;20047;-82
2021/03/25 03:41:45;;;;;;;87.53;35.55;;;;;;;8.00;100.00;101297.47;4942128;28;20049;-82
2021/03/25 03:44:17;;;;;;;84.25;35.80;;;;;;;8.06;100.00;101296.19;4935658;29;20107;-82
2021/03/25 03:46:45;;;;;;;92.10;36.40;;;;;;;8.10;100.00;101289.06;4941868;29;20242;-82
2021/03/25 03:49:17;;;;;;;89.45;35.83;;;;;;;7.93;100.00;101294.50;4961443;28;20035;-81
2021/03/25 03:52:08;;;;;;;95.18;35.92;;;;;;;7.92;100.00;101293.69;4959835;28;20062;-82
2021/03/25 03:54:39;;;;;;;88.97;37.17;;;;;;;7.92;100.00;101296.38;4953234;28;20031;-83
2021/03/25 03:57:42;;;;;;;89.05;36.75;;;;;;;8.08;100.00;101296.66;4956568;28;20031;-82
2021/03/25 04:00:36;;;;;;;87.05;35.42;;;;;;;7.93;100.00;101294.50;4966993;28;20031;-82
2021/03/25 04:03:25;;;;;;;89.55;35.63;;;;;;;7.82;100.00;101290.59;4928679;29;20407;-82
2021/03/25 04:06:18;;;;;;;91.03;36.88;;;;;;;7.80;100.00;101298.16;4960019;28;20047;-82
2021/03/25 04:09:13;;;;;;;85.28;35.85;;;;;;;7.69;100.00;101302.28;4947372;28;20097;-82
2021/03/25 04:11:56;;;;;;;85.65;36.13;;;;;;;7.68;100.00;101293.47;4936419;28;20046;-82
2021/03/25 04:14:29;;;;;;;83.45;34.75;;;;;;;7.60;100.00;101283.56;4953320;28;20075;-83
2021/03/25 04:17:37;;;;;;;86.88;36.00;;;;;;;7.55;100.00;101294.41;4952800;28;20460;-82
2021/03/25 04:20:17;;;;;;;84.30;35.67;;;;;;;7.35;100.00;101302.34;4953660;28;20131;-81
2021/03/25 04:23:08;;;;;;;85.50;34.83;;;;;;;7.35;100.00;101303.13;4954976;28;20045;-81
2021/03/25 04:25:44;;;;;;;86.18;36.85;;;;;;;7.23;100.00;101305.66;4959330;28;20095;-82
2021/03/25 04:28:14;;;;;;;88.75;34.28;;;;;;;7.09;100.00;101302.34;4938954;29;20411;-82
2021/03/25 04:30:45;;;;;;;84.75;34.97;;;;;;;7.18;100.00;101309.28;4956014;28;20031;-82
2021/03/25 04:33:16;;;;;;;83.47;35.28;;;;;;;7.05;100.00;101299.50;4938914;29;20039;-82
2021/03/25 04:35:44;;;;;;;84.85;35.42;;;;;;;7.08;100.00;101308.81;4938441;29;20039;-83
2021/03/25 04:38:20;;;;;;;87.22;35.53;;;;;;;7.02;100.00;101307.41;4961050;28;20043;-82
2021/03/25 04:40:46;;;;;;;77.32;31.63;;;;;;;7.08;100.00;101309.59;4944669;28;20062;-82
2021/03/25 04:43:20;;;;;;;80.93;35.63;;;;;;;7.13;100.00;101312.13;4937440;28;20035;-82
2021/03/25 04:46:16;;;;;;;83.75;34.83;;;;;;;7.12;100.00;101305.19;4927123;29;20039;-81
2021/03/25 04:48:43;;;;;;;85.07;35.28;;;;;;;7.24;100.00;101316.06;4944769;29;20035;-83
2021/03/25 04:51:14;;;;;;;92.35;36.40;;;;;;;7.18;100.00;101311.94;4920229;29;20036;-82
2021/03/25 04:53:42;;;;;;;82.07;34.20;;;;;;;7.21;100.00;101314.00;4953098;28;20035;-81
2021/03/25 04:56:18;;;;;;;89.15;36.95;;;;;;;7.02;100.00;101310.06;4937322;29;20032;-82
2021/03/25 04:58:55;;;;;;;89.10;36.30;;;;;;;6.93;100.00;101314.63;4945218;28;20038;-81
2021/03/25 05:01:24;;;;;;;83.95;34.35;;;;;;;6.90;100.00;101313.38;4945524;29;20031;-82
2021/03/25 05:04:03;;;;;;;95.75;37.80;;;;;;;7.03;100.00;101317.78;4968806;28;20039;-82
2021/03/25 05:06:41;;;;;;;93.07;38.33;;;;;;;7.16;100.00;101313.38;4945747;28;20039;-82
2021/03/25 05:09:09;;;;;;;96.32;37.53;;;;;;;7.17;100.00;101321.09;4945322;29;20500;-82
2021/03/25 05:11:35;;;;;;;98.00;39.13;;;;;;;7.02;100.00;101323.47;4953927;28;20094;-82
2021/03/25 05:14:01;;;;;;;99.35;39.78;;;;;;;7.26;100.00;101327.25;4938299;28;20038;-82
2021/03/25 05:16:32;;;;;;;99.32;38.17;;;;;;;7.20;100.00;101317.78;4942939;29;20031;-82
2021/03/25 05:18:58;;;;;;;;;;;;;;;7.38;100.00;101331.97;4947137;28;20032;-82
2021/03/25 05:21:37;;;;;;;99.50;38.95;;;;;;;7.40;100.00;101335.13;4959632;28;20298;-82
2021/03/25 05:24:21;;;;;;;102.55;41.38;;;;;;;7.46;100.00;101338.41;4959238;28;20089;-82
2021/03/25 05:27:11;;;;;;;110.65;42.08;;;;;;;7.62;100.00;101329.59;4958697;28;20031;-82
2021/03/25 05:29:39;;;;;;;109.28;40.60;;;;;;;7.65;100.00;101338.88;4954251;28;20054;-82
2021/03/25 05:32:08;;;;;;;111.53;41.33;;;;;;;7.68;100.00;101333.69;4939590;29;20031;-82
2021/03/25 05:34:34;;;;;;;105.90;40.67;;;;;;;7.51;100.00;101339.03;4946606;28;20095;-82
2021/03/25 05:37:00;;;;;;;102.70;40.88;;;;;;;7.29;100.00;101342.69;4948316;28;20050;-82
2021/03/25 05:39:26;;;;;;;110.18;41.83;;;;;;;7.54;100.00;101334.94;4953682;28;20031;-82
2021/03/25 05:42:09;;;;;;;117.90;44.20;;;;;;;7.64;100.00;101356.06;4961300;28;20720;-82
2021/03/25 05:44:44;;;;;;;98.60;39.65;;;;;;;7.53;100.00;101352.91;4932431;29;20103;-82
2021/03/25 05:47:43;;;;;;;109.10;41.17;;;;;;;7.58;100.00;101347.41;4950451;28;20475;-81
2021/03/25 05:50:31;;;;;;;106.70;40.67;;;;;;;7.69;100.00;101350.53;4949497;28;20044;-83
2021/03/25 05:52:57;;;;;;;103.35;40.67;;;;;;;7.27;100.00;101344.91;4948581;29;20036;-81
2021/03/25 05:55:34;;;;;;;111.65;42.90;;;;;;;7.49;100.00;101353.88;4921860;28;20099;-82
2021/03/25 05:58:19;;;;;;;110.10;42.85;;;;;;;7.68;100.00;101355.13;4953219;28;20527;-82
2021/03/25 06:01:10;;;;;;;106.53;41.70;;;;;;;7.69;100.00;101358.56;4955492;28;20087;-82
2021/03/25 06:03:40;;;;;;;111.65;41.83;;;;;;;7.34;100.00;101357.03;4937534;28;20142;-82
2021/03/25 06:06:18;;;;;;;111.47;41.53;;;;;;;7.48;100.00;101368.38;4968049;28;20452;-82
2021/03/25 06:09:02;;;;;;;97.97;39.75;;;;;;;7.65;100.00;101371.81;4959343;29;20050;-83
2021/03/25 06:11:47;;;;;;;103.60;41.10;;;;;;;7.57;100.00;101371.84;4953413;28;20031;-82
2021/03/25 06:14:30;;;;;;;106.70;42.13;;;;;;;7.56;100.00;101372.94;4956165;28;20070;-82
2021/03/25 06:17:19;;;;;;;105.15;41.10;;;;;;;7.68;100.00;101375.78;4953557;28;20031;-82
2021/03/25 06:19:51;;;;;;;104.70;40.58;;;;;;;7.80;100.00;101381.28;4951733;28;20043;-82
2021/03/25 06:22:38;;;;;;;101.75;40.05;;;;;;;7.66;100.00;101383.34;4959080;28;20043;-83
2021/03/25 06:25:52;;;;;;;104.20;40.28;;;;;;;7.85;100.00;101384.59;4952924;28;20039;-82
2021/03/25 06:28:23;;;;;;;109.90;40.15;;;;;;;7.82;100.00;101382.50;4931360;29;20103;-81
2021/03/25 06:31:26;;;;;;;100.32;38.65;;;;;;;7.99;100.00;101390.53;4953706;28;20023;-81
2021/03/25 06:34:07;;;;;;;98.15;38.55;;;;;;;7.93;100.00;101399.88;4933669;29;20047;-82
2021/03/25 06:36:44;;;;;;;101.32;39.25;;;;;;;8.09;100.00;101392.09;4950887;28;20651;-82
2021/03/25 06:39:28;;;;;;;102.28;40.45;;;;;;;8.14;100.00;101391.94;4946981;29;20039;-83
2021/03/25 06:42:20;;;;;;;97.15;39.80;;;;;;;8.18;100.00;101400.91;4952553;28;20052;-83
2021/03/25 06:45:04;;;;;;;92.53;37.65;;;;;;;8.28;100.00;101395.25;4952512;28;20050;-82
2021/03/25 06:48:00;;;;;;;95.93;39.30;;;;;;;8.08;100.00;101402.03;4928961;29;20059;-82
2021/03/25 06:50:38;;;;;;;94.18;38.60;;;;;;;8.36;100.00;101396.31;4941662;29;20503;-81
2021/03/25 06:53:23;;;;;;;93.88;40.35;;;;;;;8.42;100.00;101401.16;4967018;28;20042;-82
2021/03/25 06:55:50;;;;;;;94.03;38.30;;;;;;;8.34;100.00;101396.66;4959713;28;20098;-84
2021/03/25 06:58:23;;;;;;;94.22;39.17;;;;;;;8.44;100.00;101398.19;4963391;28;20045;-83
2021/03/25 07:01:00;;;;;;;100.57;39.38;;;;;;;8.52;100.00;101405.38;4952497;28;20031;-81
2021/03/25 07:03:27;;;;;;;91.90;39.65;;;;;;;8.61;100.00;101404.28;4960804;28;20059;-82
2021/03/25 07:05:54;;;;;;;91.82;38.70;;;;;;;8.61;100.00;101409.66;4942614;29;20106;-84
2021/03/25 07:08:32;;;;;;;96.38;40.35;;;;;;;8.80;100.00;101401.19;4958074;28;20061;-82
2021/03/25 07:11:04;;;;;;;91.68;39.22;;;;;;;8.80;100.00;101409.22;4940454;28;20035;-83
2021/03/25 07:13:42;;;;;;;100.78;39.45;;;;;;;8.95;99.32;101414.03;4943863;28;20038;-84
2021/03/25 07:16:11;;;;;;;94.70;38.25;;;;;;;8.92;98.87;101407.41;4940945;29;20038;-83
2021/03/25 07:19:06;;;;;;;92.47;38.63;;;;;;;8.74;100.00;101419.38;4941800;28;20034;-82
2021/03/25 07:21:40;;;;;;;94.35;39.15;;;;;;;8.44;100.00;101415.06;4940483;29;20468;-82
2021/03/25 07:24:34;;;;;;;95.45;38.42;;;;;;;8.64;100.00;101417.03;4961856;28;20041;-82
2021/03/25 07:27:17;;;;;;;94.70;37.97;;;;;;;8.50;100.00;101421.03;4951474;28;20109;-81
2021/03/25 07:30:18;;;;;;;91.75;37.33;;;;;;;8.78;100.00;101422.19;4925374;29;20114;-83
2021/03/25 07:32:56;;;;;;;87.85;36.40;;;;;;;8.88;100.00;101422.59;4937682;28;20039;-81
2021/03/25 07:35:35;;;;;;;90.85;37.85;;;;;;;9.04;99.15;101422.81;4951785;28;21140;-81
2021/03/25 07:38:16;;;;;;;91.40;37.75;;;;;;;9.06;99.68;101421.41;4957596;28;20422;-84
2021/03/25 07:40:43;;;;;;;94.18;38.17;;;;;;;9.38;98.03;101429.91;4952872;28;20036;-82
2021/03/25 07:43:24;;;;;;;94.60;38.25;;;;;;;9.31;98.22;101425.03;4964667;28;20042;-82
2021/03/25 07:46:19;;;;;;;87.53;38.05;;;;;;;9.31;98.10;101419.66;4943817;28;20066;-82
2021/03/25 07:49:08;;;;;;;93.45;38.28;;;;;;;9.52;97.51;101419.69;4924466;29;20035;-83
2021/03/25 07:51:42;;;;;;;95.68;38.08;;;;;;;9.58;96.60;101431.81;4935880;28;20039;-82
2021/03/25 07:54:15;;;;;;;90.75;38.42;;;;;;;9.62;95.86;101422.75;4938039;28;20130;-82
2021/03/25 07:56:53;;;;;;;84.13;35.53;;;;;;;9.47;97.43;101427.91;4965902;28;20086;-83
2021/03/25 07:59:30;;;;;;;84.20;36.80;;;;;;;9.57;96.08;101430.22;4962783;28;20038;-82
2021/03/25 08:01:59;;;;;;;84.22;37.22;;;;;;;9.61;96.62;101433.81;4937730;28;20055;-83
2021/03/25 08:04:34;;;;;;;92.20;38.55;;;;;;;9.67;96.81;101429.84;4941743;28;20027;-82
2021/03/25 08:07:09;;;;;;;85.70;36.10;;;;;;;9.72;96.77;101429.63;4959343;28;20027;-84
2021/03/25 08:10:00;;;;;;;87.80;37.25;;;;;;;9.97;95.73;101437.47;4941770;29;20571;-82
2021/03/25 08:12:37;;;;;;;78.90;34.10;;;;;;;9.93;94.80;101433.06;4950196;28;20090;-84
2021/03/25 08:15:26;;;;;;;83.07;35.15;;;;;;;10.12;94.67;101433.41;4957988;28;20066;-83
2021/03/25 08:18:13;;;;;;;78.75;33.33;;;;;;;10.05;95.03;101438.50;4959592;28;20092;-83
2021/03/25 08:20:57;;;;;;;87.53;34.40;;;;;;;10.07;94.55;101441.66;4949620;28;20027;-83
2021/03/25 08:23:41;;;;;;;74.22;33.30;;;;;;;10.10;94.85;101438.34;4965171;28;20039;-83
2021/03/25 08:26:09;;;;;;;79.82;32.83;;;;;;;10.32;94.50;101440.63;4942245;29;20034;-83
2021/03/25 08:28:56;;;;;;;78.35;32.53;;;;;;;10.33;93.65;101439.53;4944352;28;20030;-83
2021/03/25 08:31:34;;;;;;;71.32;30.15;;;;;;;10.46;94.06;101446.50;4938163;28;20051;-83
2021/03/25 08:34:05;;;;;;;72.47;32.38;;;;;;;10.60;94.30;101438.09;4954773;28;20035;-82
2021/03/25 08:36:46;;;;;;;;;;;;;;;10.71;94.02;101437.31;4962561;28;20039;-84
2021/03/25 08:39:42;;;;;;;68.07;27.73;;;;;;;10.98;93.33;101448.53;4944212;29;19918;-84
2021/03/25 08:42:26;;;;;;;64.15;26.45;;;;;;;11.03;92.87;101442.94;4961348;28;20586;-84
2021/03/25 08:45:00;;;;;;;64.70;27.05;;;;;;;11.03;92.96;101441.03;4950306;28;20043;-84
2021/03/25 08:47:33;;;;;;;61.83;26.05;;;;;;;11.29;91.61;101446.84;4969647;28;20041;-83
2021/03/25 08:50:11;;;;;;;66.47;27.88;;;;;;;11.43;91.05;101438.38;4945570;28;20126;-82
2021/03/25 08:52:39;;;;;;;65.82;27.83;;;;;;;11.42;91.35;101434.91;4953214;28;20174;-82
2021/03/25 08:55:15;;;;;;;68.13;29.50;;;;;;;11.74;89.87;101439.34;4948125;28;20066;-83
2021/03/25 08:57:41;;;;;;;62.22;26.75;;;;;;;12.14;86.74;101436.56;4941669;29;20031;-82
2021/03/25 09:00:15;;;;;;;62.50;26.95;;;;;;;12.26;87.16;101435.72;4958606;28;20489;-81
2021/03/25 09:02:50;;;;;;;59.30;26.48;;;;;;;12.43;86.10;101440.78;4954034;28;20122;-82
2021/03/25 09:05:15;;;;;;;63.80;25.95;;;;;;;12.60;85.42;101452.06;4955639;28;20046;-82
2021/03/25 09:07:42;;;;;;;60.67;26.45;;;;;;;12.89;84.83;101442.72;4939302;29;20106;-82
2021/03/25 09:10:39;;;;;;;57.38;25.98;;;;;;;13.37;83.78;101439.63;4970556;28;20035;-84
2021/03/25 09:13:04;;;;;;;52.35;24.00;;;;;;;13.26;81.97;101441.28;4942314;29;20098;-83
2021/03/25 09:15:30;;;;;;;60.92;25.83;;;;;;;13.85;80.86;101442.91;4951498;28;20035;-82
2021/03/25 09:17:59;;;;;;;51.33;24.27;;;;;;;14.08;78.92;101447.25;4929388;29;20034;-82
2021/03/25 09:20:38;;;;;;;54.40;23.38;;;;;;;14.09;78.61;101437.97;4962186;28;20082;-82
2021/03/25 09:23:28;;;;;;;55.42;25.25;;;;;;;14.26;77.44;101442.94;4955877;28;20047;-82
2021/03/25 09:28:23;;;;;;;42.30;22.20;;;;;;;14.87;73.45;101436.59;4945836;28;20058;-74
2021/03/25 09:31:06;;;;;;;46.13;21.70;;;;;;;15.30;70.43;101439.59;4951467;28;20705;-75
2021/03/25 09:33:35;;;;;;;43.58;21.80;;;;;;;14.88;70.96;101443.63;4955436;28;20070;-75
2021/03/25 09:36:00;;;;;;;46.00;21.70;;;;;;;14.48;72.95;101442.19;4953102;29;20064;-75
2021/03/25 09:38:32;;;;;;;46.50;22.30;;;;;;;14.45;72.50;101428.59;4951263;29;20118;-75
2021/03/25 09:40:58;;;;;;;;;;;;;;;14.99;72.04;101422.84;4952356;28;20043;-74
2021/03/25 09:43:26;;;;;;;40.97;19.77;;;;;;;15.42;70.77;101422.34;4953641;29;19914;-76
2021/03/25 09:45:55;;;;;;;49.08;19.30;;;;;;;15.86;67.89;101425.19;4952886;29;20384;-75
2021/03/25 09:48:27;;;;;;;44.10;21.52;;;;;;;16.21;65.73;101420.91;4948943;29;20151;-75
2021/03/25 09:51:04;;;;;;;43.45;22.05;;;;;;;16.99;61.80;101421.59;4952735;29;20498;-75
2021/03/25 09:53:44;;;;;;;39.13;19.10;;;;;;;16.90;62.30;101419.19;4953392;29;20177;-76
2021/03/25 09:56:27;;;;;;;39.35;19.60;;;;;;;16.66;61.92;101424.44;4953841;29;20105;-76
2021/03/25 09:58:52;;;;;;;39.83;20.17;;;;;;;16.77;62.75;101422.59;4953317;28;20511;-76
2021/03/25 10:01:42;;;;;;;36.90;18.48;;;;;;;16.95;61.24;101416.13;4938721;29;20034;-77
2021/03/25 10:04:29;;;;;;;37.72;18.80;;;;;;;17.04;61.20;101405.69;4953874;29;20043;-76
2021/03/25 10:07:00;;;;;;;38.30;18.83;;;;;;;17.39;59.72;101409.75;4951072;29;20434;-76
2021/03/25 10:09:48;;;;;;;40.53;19.45;;;;;;;17.10;60.80;101416.97;4951199;29;20055;-76
2021/03/25 10:12:44;;;;;;;40.08;19.67;;;;;;;16.33;60.80;101413.63;4946722;29;20031;-76
2021/03/25 10:15:32;;;;;;;37.08;18.92;;;;;;;16.92;62.15;101418.81;4952373;29;20039;-76
2021/03/25 10:17:59;;;;;;;38.30;18.55;;;;;;;17.30;59.23;101407.38;4951623;29;20042;-76
2021/03/25 10:21:07;;;;;;;37.95;17.85;;;;;;;17.50;58.13;101405.94;4949628;29;20066;-76
2021/03/25 10:23:39;;;;;;;41.85;18.38;;;;;;;16.62;60.63;101404.59;4935607;29;20499;-76
2021/03/25 10:26:04;;;;;;;33.72;16.52;;;;;;;17.27;58.52;101402.69;4952183;29;20086;-75
2021/03/25 10:28:36;;;;;;;33.25;17.15;;;;;;;17.79;55.56;101398.63;4950669;29;20030;-76
2021/03/25 10:31:12;;;;;;;36.63;18.38;;;;;;;18.17;55.88;101399.91;4934405;29;20035;-76
2021/03/25 10:33:38;;;;;;;33.90;17.13;;;;;;;18.01;55.81;101392.09;4953387;29;20114;-76
2021/03/25 10:36:07;;;;;;;30.00;15.60;;;;;;;18.13;56.25;101389.00;4952063;29;20493;-76
2021/03/25 10:38:44;;;;;;;34.22;16.45;;;;;;;18.26;54.56;101381.19;4949591;28;20032;-76
2021/03/25 10:41:17;;;;;;;34.78;17.30;;;;;;;18.13;55.63;101382.75;4935110;29;20039;-76
2021/03/25 10:43:42;;;;;;;27.90;16.27;;;;;;;18.21;56.45;101379.66;4949284;29;20058;-76
2021/03/25 10:46:09;;;;;;;29.48;15.55;;;;;;;18.34;54.96;101383.56;4950991;29;20063;-76
2021/03/25 10:48:41;;;;;;;33.03;16.88;;;;;;;18.29;54.01;101375.00;4952228;29;20035;-76
2021/03/25 10:51:16;;;;;;;30.20;16.48;;;;;;;18.46;53.72;101369.56;4949067;28;20114;-76
2021/03/25 10:53:48;;;;;;;28.15;16.42;;;;;;;18.92;53.07;101372.22;4950449;28;20035;-76
2021/03/25 10:56:27;;;;;;;28.52;16.10;;;;;;;19.28;51.25;101379.13;4928640;29;20043;-76
2021/03/25 10:59:03;;;;;;;29.33;15.93;;;;;;;19.39;51.22;101370.94;4952587;29;20106;-76
2021/03/25 11:01:32;;;;;;;29.35;14.57;;;;;;;19.25;49.99;101366.28;4946907;29;20058;-76
2021/03/25 11:03:59;;;;;;;30.15;14.65;;;;;;;19.50;48.83;101361.53;4948696;28;20023;-76
2021/03/25 11:06:36;;;;;;;30.30;14.05;;;;;;;19.32;48.76;101349.88;4952057;29;20109;-73
2021/03/25 11:09:15;;;;;;;23.48;12.88;;;;;;;19.00;50.45;101351.94;4916764;29;20037;-75
2021/03/25 11:11:41;;;;;;;24.70;13.82;;;;;;;19.10;49.91;101355.81;4948473;29;20066;-76
2021/03/25 11:14:31;;;;;;;31.60;14.30;;;;;;;19.18;49.53;101343.69;4953171;29;20062;-77
2021/03/25 11:17:16;;;;;;;24.98;13.70;;;;;;;19.20;49.58;101349.53;4930705;29;20070;-74
2021/03/25 11:19:42;;;;;;;26.08;13.90;;;;;;;18.69;49.98;101348.09;4947867;29;20041;-74
2021/03/25 11:22:12;;;;;;;26.05;14.02;;;;;;;18.83;51.45;101345.31;4951462;29;20029;-75
2021/03/25 11:24:38;;;;;;;25.40;14.05;;;;;;;18.71;51.11;101340.31;4949315;29;20043;-74
2021/03/25 11:27:13;;;;;;;26.02;13.90;;;;;;;19.12;51.02;101342.53;4933167;29;20042;-74
2021/03/25 11:29:41;;;;;;;27.48;14.55;;;;;;;19.27;50.31;101347.53;4941584;29;20082;-75
2021/03/25 11:32:16;;;;;;;27.13;13.98;;;;;;;19.34;51.01;101344.81;4951812;29;20031;-74
2021/03/25 11:34:45;;;;;;;28.88;14.50;;;;;;;19.25;51.17;101344.44;4950808;29;20122;-73
2021/03/25 11:37:15;;;;;;;23.08;13.65;;;;;;;19.13;50.70;101350.31;4952997;29;20045;-75
2021/03/25 11:39:58;;;;;;;27.08;13.50;;;;;;;18.99;51.21;101352.34;4945287;28;20930;-72
2021/03/25 11:42:26;;;;;;;25.48;13.57;;;;;;;18.72;51.04;101355.50;4948500;28;20035;-74
2021/03/25 11:44:52;;;;;;;24.33;12.60;;;;;;;18.44;51.01;101358.25;4941387;29;20063;-75
2021/03/25 11:47:39;;;;;;;22.20;12.25;;;;;;;18.15;51.18;101351.22;4951462;29;20035;-75
2021/03/25 11:50:15;;;;;;;23.23;12.15;;;;;;;18.16;51.26;101343.78;4950829;29;20377;-73
2021/03/25 11:52:50;;;;;;;18.83;10.73;;;;;;;17.83;52.36;101337.53;4950959;29;20031;-73
2021/03/25 11:55:25;;;;;;;21.27;10.98;;;;;;;17.63;53.09;101341.78;4952797;29;20114;-73
2021/03/25 11:57:51;;;;;;;28.00;12.35;;;;;;;17.47;53.74;101335.88;4951144;29;20031;-74
2021/03/25 12:00:24;;;;;;;26.02;13.00;;;;;;;17.43;54.11;101326.91;4951005;28;20039;-73